Time;durP1;ratioP1;P1;durP2;ratioP2;P2;SDS_P1;SDS_P2;PMS_P1;PMS_P2;Temp;Humidity;BMP_temperature;BMP_pressure;BME280_temperature;BME280_humidity;BME280_pressure;Samples;Min_cycle;Max_cycle;Signal;HPM_P1;HPM_P2
2022/12/17 13:06:45;;;;;;;54.97;41.93;;;-1.00;99.90;;;;;;6226807;23;20440;-64
2022/12/17 13:09:21;;;;;;;47.37;40.00;;;-1.00;99.90;;;;;;6216047;23;20924;-65
2022/12/17 13:11:50;;;;;;;51.13;42.47;;;-0.90;99.90;;;;;;6216148;23;20749;-64
2022/12/17 13:14:19;;;;;;;50.63;41.43;;;-0.90;99.90;;;;;;6216540;23;20412;-65
2022/12/17 13:16:52;;;;;;;48.13;39.03;;;-1.00;99.90;;;;;;6216614;23;20466;-65
2022/12/17 13:19:32;;;;;;;51.50;41.40;;;-1.10;99.90;;;;;;6216561;23;20392;-65
2022/12/17 13:22:12;;;;;;;51.70;42.80;;;-1.00;99.90;;;;;;6216019;23;20806;-64
2022/12/17 13:24:39;;;;;;;49.67;40.77;;;-0.90;99.90;;;;;;6216378;23;20450;-64
2022/12/17 13:27:21;;;;;;;52.57;42.23;;;-0.90;99.90;;;;;;6216334;23;20467;-64
2022/12/17 13:29:47;;;;;;;48.73;39.53;;;-0.80;99.90;;;;;;6191984;23;20428;-63
2022/12/17 13:32:22;;;;;;;49.60;41.60;;;-0.70;99.90;;;;;;6216318;23;20506;-64
2022/12/17 13:35:04;;;;;;;47.93;39.53;;;-0.70;99.90;;;;;;6216499;23;20399;-64
2022/12/17 13:37:42;;;;;;;48.17;39.80;;;-0.80;99.90;;;;;;6216556;23;20400;-65
2022/12/17 13:40:28;;;;;;;53.97;40.27;;;-0.90;99.90;;;;;;6217114;23;20431;-64
2022/12/17 13:42:55;;;;;;;45.80;37.70;;;-1.00;99.90;;;;;;6217845;23;20479;-64
2022/12/17 13:45:25;;;;;;;52.90;43.43;;;-1.00;99.90;;;;;;6234964;23;20893;-64
2022/12/17 13:47:55;;;;;;;53.10;42.37;;;-1.20;99.90;;;;;;6216567;23;20415;-64
2022/12/17 13:50:24;;;;;;;52.17;41.63;;;-1.30;99.90;;;;;;6216495;23;20411;-64
2022/12/17 13:52:52;;;;;;;51.20;40.67;;;-1.40;99.90;;;;;;6216594;23;20412;-64
2022/12/17 13:55:21;;;;;;;56.10;42.37;;;-1.50;99.90;;;;;;6216459;23;20412;-65
2022/12/17 13:57:49;;;;;;;49.50;42.03;;;-1.50;99.90;;;;;;6216337;23;20466;-64
2022/12/17 14:00:22;;;;;;;57.60;43.23;;;-1.60;99.90;;;;;;6215481;23;20915;-64
2022/12/17 14:02:49;;;;;;;55.60;42.90;;;-1.70;99.90;;;;;;6216261;23;20400;-65
2022/12/17 14:05:25;;;;;;;58.43;43.03;;;-1.80;99.90;;;;;;6216092;23;20466;-66
2022/12/17 14:07:54;;;;;;;61.37;44.80;;;-1.80;99.90;;;;;;6216658;23;20799;-64
2022/12/17 14:10:21;;;;;;;54.53;43.33;;;-1.80;99.90;;;;;;6216246;23;20461;-64
2022/12/17 14:12:48;;;;;;;58.67;43.30;;;-1.80;99.90;;;;;;6216484;23;20435;-64
2022/12/17 14:15:23;;;;;;;53.73;42.80;;;-1.90;99.90;;;;;;6215994;23;20419;-64
2022/12/17 14:17:51;;;;;;;53.70;43.40;;;-1.90;99.90;;;;;;6215725;23;20856;-64
2022/12/17 14:20:20;;;;;;;55.97;40.27;;;-1.90;99.90;;;;;;6216133;23;20900;-64
2022/12/17 14:22:49;;;;;;;50.33;40.50;;;-1.90;99.90;;;;;;6216238;23;20465;-63
2022/12/17 14:25:20;;;;;;;56.70;43.50;;;-1.90;99.90;;;;;;6216344;23;20466;-64
2022/12/17 14:27:53;;;;;;;54.60;42.43;;;-1.90;99.90;;;;;;6216599;23;20396;-63
2022/12/17 14:30:23;;;;;;;53.80;42.90;;;-1.80;99.90;;;;;;6226312;23;20399;-63
2022/12/17 14:32:50;;;;;;;53.07;43.23;;;-1.80;99.90;;;;;;6216241;23;20950;-64
2022/12/17 14:35:25;;;;;;;54.33;40.30;;;-1.90;99.90;;;;;;6218483;23;20412;-64
2022/12/17 14:37:52;;;;;;;56.17;41.60;;;-2.00;99.90;;;;;;6217454;23;20415;-65
2022/12/17 14:40:20;;;;;;;52.30;38.90;;;-2.00;99.90;;;;;;6216061;23;20464;-65
2022/12/17 14:42:47;;;;;;;55.27;42.30;;;-2.10;99.90;;;;;;6217370;23;20469;-65
2022/12/17 14:45:24;;;;;;;49.07;40.50;;;-2.10;99.90;;;;;;6217785;23;20415;-67
2022/12/17 14:47:55;;;;;;;53.73;42.07;;;-2.20;99.90;;;;;;6218723;23;20434;-67
2022/12/17 14:50:31;;;;;;;51.13;39.07;;;-2.10;99.90;;;;;;6221126;23;20436;-67
2022/12/17 14:52:59;;;;;;;50.87;40.47;;;-2.10;99.90;;;;;;6218352;23;20450;-68
2022/12/17 14:55:37;;;;;;;54.57;41.93;;;-2.20;99.90;;;;;;6217506;23;20408;-68
2022/12/17 14:58:17;;;;;;;55.77;43.10;;;-2.30;99.90;;;;;;6217966;23;20395;-68
2022/12/17 15:00:46;;;;;;;52.67;39.73;;;-2.30;99.90;;;;;;6217582;23;20442;-68
2022/12/17 15:03:18;;;;;;;52.00;39.73;;;-2.30;99.90;;;;;;6217831;23;20392;-68
2022/12/17 15:05:48;;;;;;;55.00;40.53;;;-2.30;99.90;;;;;;6217253;23;20858;-69
2022/12/17 15:08:15;;;;;;;56.50;42.73;;;-2.30;99.90;;;;;;6217545;23;20466;-69
2022/12/17 15:10:43;;;;;;;54.17;41.37;;;-2.40;99.90;;;;;;6217330;23;20970;-68
2022/12/17 15:13:09;;;;;;;58.13;43.30;;;-2.30;99.90;;;;;;6217487;23;20958;-67
2022/12/17 15:15:36;;;;;;;58.30;44.10;;;-2.40;99.90;;;;;;6217868;23;20407;-69
2022/12/17 15:18:02;;;;;;;58.77;44.30;;;-2.40;99.90;;;;;;6221715;23;20446;-68
2022/12/17 15:20:30;;;;;;;58.87;44.60;;;-2.50;99.90;;;;;;6218916;23;20407;-67
2022/12/17 15:22:56;;;;;;;58.50;42.37;;;-2.60;99.90;;;;;;6217119;23;20498;-68
2022/12/17 15:25:23;;;;;;;58.03;44.37;;;-2.70;99.90;;;;;;6217533;23;20411;-68
2022/12/17 15:27:51;;;;;;;56.27;41.80;;;-2.70;99.90;;;;;;6217675;23;20466;-67
2022/12/17 15:30:18;;;;;;;57.50;42.60;;;-2.80;99.90;;;;;;6217417;23;20435;-68
2022/12/17 15:32:45;;;;;;;60.60;43.33;;;-2.80;99.90;;;;;;6219820;23;20407;-68
2022/12/17 15:35:13;;;;;;;56.70;41.27;;;-2.90;99.90;;;;;;6217692;23;20408;-68
2022/12/17 15:37:40;;;;;;;55.47;41.80;;;-2.80;99.90;;;;;;6218465;23;20446;-68
2022/12/17 15:40:10;;;;;;;55.67;42.93;;;-2.90;99.90;;;;;;6218156;23;20403;-68
2022/12/17 15:45:25;;;;;;;55.67;41.37;;;-2.90;99.90;;;;;;6218110;23;20391;-68
2022/12/17 15:47:53;;;;;;;52.37;40.60;;;-3.00;99.90;;;;;;6217926;23;20392;-68
2022/12/17 15:50:19;;;;;;;59.70;43.40;;;-3.00;99.90;;;;;;6218542;23;20493;-68
2022/12/17 15:52:46;;;;;;;63.87;44.60;;;-3.00;99.90;;;;;;6217985;23;20470;-68
2022/12/17 15:55:13;;;;;;;66.07;45.33;;;-3.10;99.90;;;;;;6218159;23;20411;-67
2022/12/17 15:57:39;;;;;;;67.20;47.57;;;-3.20;99.90;;;;;;6217882;23;20449;-70
2022/12/17 16:00:10;;;;;;;66.10;47.93;;;-3.20;99.90;;;;;;6217932;23;20415;-68
2022/12/17 16:02:38;;;;;;;67.43;49.37;;;-3.30;99.90;;;;;;6218152;23;20462;-68
2022/12/17 16:05:09;;;;;;;66.10;50.07;;;-3.30;99.90;;;;;;6219862;23;20412;-68
2022/12/17 16:07:37;;;;;;;75.47;50.30;;;-3.40;99.90;;;;;;6229292;23;20495;-69
2022/12/17 16:10:05;;;;;;;73.13;50.17;;;-3.40;99.90;;;;;;6228913;23;20463;-68
2022/12/17 16:12:32;;;;;;;76.83;51.33;;;-3.50;99.90;;;;;;6228065;23;20443;-68
2022/12/17 16:14:58;;;;;;;75.40;50.10;;;-3.50;99.90;;;;;;6219125;23;20412;-69
2022/12/17 16:17:25;;;;;;;72.07;49.80;;;-3.50;99.90;;;;;;6217978;23;20411;-67
2022/12/17 16:19:53;;;;;;;73.40;52.13;;;-3.60;99.90;;;;;;6218244;23;20788;-68
2022/12/17 16:22:19;;;;;;;67.77;48.03;;;-3.70;99.90;;;;;;6222746;23;20432;-67
2022/12/17 16:24:46;;;;;;;83.33;52.93;;;-3.70;99.90;;;;;;6227130;23;20388;-67
2022/12/17 16:27:13;;;;;;;75.93;50.30;;;-3.80;99.90;;;;;;6227635;23;20412;-67
2022/12/17 16:29:40;;;;;;;72.60;50.40;;;-3.70;99.90;;;;;;6220210;23;20438;-67
2022/12/17 16:32:07;;;;;;;78.67;52.20;;;-3.70;99.90;;;;;;6217570;23;20794;-67
2022/12/17 16:34:33;;;;;;;82.47;57.20;;;-3.70;99.90;;;;;;6218041;23;20466;-67
2022/12/17 16:37:01;;;;;;;82.03;56.07;;;-3.80;99.90;;;;;;6217443;23;20897;-67
2022/12/17 16:39:28;;;;;;;82.60;55.50;;;-3.80;99.90;;;;;;6217784;23;20408;-66
2022/12/17 16:41:55;;;;;;;85.50;54.57;;;-3.80;99.90;;;;;;6216931;23;20486;-68
2022/12/17 16:44:21;;;;;;;90.03;58.33;;;-3.90;99.90;;;;;;6216731;23;20471;-68
2022/12/17 16:46:48;;;;;;;88.23;54.70;;;-4.00;99.90;;;;;;6216880;23;20411;-68
2022/12/17 16:49:16;;;;;;;99.60;58.50;;;-4.10;99.90;;;;;;6216877;23;20420;-67
2022/12/17 16:51:44;;;;;;;94.43;55.33;;;-4.20;99.90;;;;;;6228473;23;20486;-66
2022/12/17 16:54:15;;;;;;;88.30;56.10;;;-4.20;99.90;;;;;;6218473;23;20470;-65
2022/12/17 16:56:44;;;;;;;87.87;55.60;;;-4.30;99.90;;;;;;6216857;23;20424;-66
2022/12/17 16:59:13;;;;;;;88.13;54.27;;;-4.30;99.90;;;;;;6216641;23;20412;-66
2022/12/17 17:01:43;;;;;;;93.40;56.47;;;-4.40;99.90;;;;;;6220402;23;20447;-66
2022/12/17 17:04:10;;;;;;;86.50;51.07;;;-4.40;99.90;;;;;;6216265;23;20446;-65
2022/12/17 17:06:39;;;;;;;92.73;56.47;;;-4.40;99.90;;;;;;6216785;23;20411;-66
2022/12/17 17:09:06;;;;;;;86.13;52.20;;;-4.40;99.90;;;;;;6216193;23;20522;-66
2022/12/17 17:11:34;;;;;;;93.87;56.97;;;-4.40;99.90;;;;;;6216199;23;20436;-65
2022/12/17 17:14:01;;;;;;;84.07;53.50;;;-4.40;99.90;;;;;;6217213;23;20527;-66
2022/12/17 17:16:27;;;;;;;86.80;54.13;;;-4.40;99.90;;;;;;6216441;23;20411;-65
2022/12/17 17:18:54;;;;;;;89.73;50.73;;;-4.40;99.90;;;;;;6216303;23;20411;-67
2022/12/17 17:21:26;;;;;;;95.00;54.20;;;-4.40;99.90;;;;;;6216262;23;20432;-66
2022/12/17 17:23:56;;;;;;;87.40;54.80;;;-4.40;99.90;;;;;;6216385;23;20396;-64
2022/12/17 17:26:24;;;;;;;90.73;58.47;;;-4.40;99.90;;;;;;6216260;23;20415;-65
2022/12/17 17:28:52;;;;;;;91.10;59.80;;;-4.30;99.90;;;;;;6215748;23;20411;-64
2022/12/17 17:31:18;;;;;;;85.50;56.03;;;-4.40;99.90;;;;;;6216518;23;20432;-67
2022/12/17 17:33:47;;;;;;;88.23;55.57;;;-4.40;99.90;;;;;;6216117;23;20955;-66
2022/12/17 17:36:17;;;;;;;92.70;55.13;;;-4.40;99.90;;;;;;6215849;23;20889;-67
2022/12/17 17:38:43;;;;;;;98.00;56.87;;;-4.50;99.90;;;;;;6216136;23;20782;-65
2022/12/17 17:41:12;;;;;;;99.80;56.60;;;-4.60;99.90;;;;;;6216736;23;20428;-65
2022/12/17 17:43:39;;;;;;;103.23;57.80;;;-4.60;99.90;;;;;;6216607;23;20784;-67
2022/12/17 17:46:09;;;;;;;98.23;59.60;;;-4.70;99.90;;;;;;6216770;23;20412;-68
2022/12/17 17:48:36;;;;;;;99.97;58.13;;;-4.80;99.90;;;;;;6217645;23;20466;-67
2022/12/17 17:51:06;;;;;;;93.83;54.97;;;-4.80;99.90;;;;;;6216984;23;20440;-66
2022/12/17 17:53:33;;;;;;;107.80;56.00;;;-4.90;99.90;;;;;;6216577;23;20415;-66
2022/12/17 17:56:04;;;;;;;97.83;54.80;;;-5.00;99.90;;;;;;6217578;23;20412;-69
2022/12/17 17:58:31;;;;;;;103.93;58.60;;;-5.00;99.90;;;;;;6218740;23;20798;-67
2022/12/17 18:00:58;;;;;;;101.10;57.07;;;-5.10;99.90;;;;;;6217088;23;20436;-68
2022/12/17 18:03:28;;;;;;;104.07;58.23;;;-5.10;99.90;;;;;;6216748;23;20785;-67
2022/12/17 18:05:55;;;;;;;95.83;54.37;;;-5.10;99.90;;;;;;6217194;23;20477;-67
2022/12/17 18:08:22;;;;;;;108.43;56.60;;;-5.10;99.90;;;;;;6216354;23;20411;-66
2022/12/17 18:10:56;;;;;;;107.73;58.10;;;-5.10;99.90;;;;;;6216284;23;20444;-67
2022/12/17 18:16:07;;;;;;;105.37;56.83;;;-5.10;99.90;;;;;;6217968;23;20426;-69
2022/12/17 18:18:35;;;;;;;114.75;69.90;;;-5.10;99.90;;;;;;6217604;23;20886;-68
2022/12/17 18:21:03;;;;;;;113.57;66.63;;;-5.10;99.90;;;;;;6219383;23;20548;-66
2022/12/17 18:23:30;;;;;;;106.50;59.37;;;-5.20;99.90;;;;;;6219039;23;20806;-67
2022/12/17 18:26:03;;;;;;;104.80;58.10;;;-5.20;99.90;;;;;;6221284;23;20719;-68
2022/12/17 18:28:29;;;;;;;103.37;56.40;;;-5.20;99.90;;;;;;6221936;23;20396;-67
2022/12/17 18:30:56;;;;;;;103.80;57.13;;;-5.20;99.90;;;;;;6218804;23;20440;-68
2022/12/17 18:33:24;;;;;;;103.53;56.07;;;-5.20;99.90;;;;;;6218895;23;20474;-68
2022/12/17 18:35:52;;;;;;;111.10;59.60;;;-5.30;99.90;;;;;;6218821;23;20470;-67
2022/12/17 18:38:18;;;;;;;114.47;56.73;;;-5.30;99.90;;;;;;6218255;23;20471;-68
2022/12/17 18:40:45;;;;;;;118.97;62.80;;;-5.30;99.90;;;;;;6218759;23;20427;-68
2022/12/17 18:43:23;;;;;;;108.87;61.53;;;-5.30;99.90;;;;;;6218344;23;20411;-68
2022/12/17 18:45:50;;;;;;;103.67;57.87;;;-5.30;99.90;;;;;;6218777;23;20404;-69
2022/12/17 18:48:16;;;;;;;101.30;55.60;;;-5.30;99.90;;;;;;6219017;23;20415;-72
2022/12/17 18:50:43;;;;;;;98.50;56.10;;;-5.20;99.90;;;;;;6218031;23;20439;-71
2022/12/17 18:53:11;;;;;;;98.00;56.50;;;-5.20;99.90;;;;;;6218448;23;20415;-71
2022/12/17 18:55:39;;;;;;;101.47;55.53;;;-5.20;99.90;;;;;;6219443;23;20419;-70
2022/12/17 18:58:06;;;;;;;93.47;53.60;;;-5.20;99.90;;;;;;6217833;23;20893;-70
2022/12/17 19:00:33;;;;;;;96.27;55.43;;;-5.20;99.90;;;;;;6217848;23;20412;-70
2022/12/17 19:03:00;;;;;;;83.03;51.57;;;-5.20;99.90;;;;;;6217929;23;20419;-70
2022/12/17 19:05:26;;;;;;;88.87;52.53;;;-5.20;99.90;;;;;;6217780;23;20486;-70
2022/12/17 19:07:53;;;;;;;86.50;51.13;;;-5.20;99.90;;;;;;6218008;23;20971;-69
2022/12/17 19:10:21;;;;;;;95.23;51.93;;;-5.20;99.90;;;;;;6217945;23;20494;-69
2022/12/17 19:12:47;;;;;;;85.20;49.63;;;-5.20;99.90;;;;;;6218559;23;20411;-69
2022/12/17 19:15:14;;;;;;;91.67;53.70;;;-5.20;99.90;;;;;;6217897;23;20412;-71
2022/12/17 19:17:41;;;;;;;94.77;57.10;;;-5.20;99.90;;;;;;6218318;23;20463;-72
2022/12/17 19:20:09;;;;;;;93.93;54.93;;;-5.20;99.90;;;;;;6218476;23;20454;-71
2022/12/17 19:22:36;;;;;;;100.73;54.37;;;-5.20;99.90;;;;;;6218011;23;20432;-70
2022/12/17 19:25:02;;;;;;;84.77;53.00;;;-5.20;99.90;;;;;;6218110;23;20396;-70
2022/12/17 19:27:30;;;;;;;78.40;49.70;;;-5.20;99.90;;;;;;6217439;23;20761;-70
2022/12/17 19:29:57;;;;;;;87.60;51.67;;;-5.20;99.90;;;;;;6218487;23;20462;-70
2022/12/17 19:32:24;;;;;;;81.23;51.47;;;-5.30;99.90;;;;;;6217768;23;20438;-70
2022/12/17 19:34:51;;;;;;;93.67;56.40;;;-5.30;99.90;;;;;;6218508;23;20479;-70
2022/12/17 19:37:17;;;;;;;88.00;52.47;;;-5.30;99.90;;;;;;6221766;23;20412;-71
2022/12/17 19:39:44;;;;;;;85.40;52.47;;;-5.30;99.90;;;;;;6222436;23;20470;-70
2022/12/17 19:42:23;;;;;;;85.73;51.87;;;-5.30;99.90;;;;;;6220588;23;20481;-69
2022/12/17 19:44:51;;;;;;;79.33;48.60;;;-5.30;99.90;;;;;;6218683;23;20411;-70
2022/12/17 19:47:18;;;;;;;94.00;51.77;;;-5.30;99.90;;;;;;6218242;23;20415;-70
2022/12/17 19:49:45;;;;;;;93.53;51.90;;;-5.30;99.90;;;;;;6218877;23;20412;-70
2022/12/17 19:52:11;;;;;;;90.27;52.00;;;-5.40;99.90;;;;;;6218230;23;20439;-71
2022/12/17 19:54:38;;;;;;;101.00;54.33;;;-5.40;99.90;;;;;;6218110;23;20790;-70
2022/12/17 19:57:05;;;;;;;95.33;53.57;;;-5.40;99.90;;;;;;6218452;23;20439;-70
2022/12/17 19:59:32;;;;;;;104.33;56.57;;;-5.50;99.90;;;;;;6218254;23;20416;-69
2022/12/17 20:02:02;;;;;;;95.30;55.63;;;-5.50;99.90;;;;;;6223097;23;20820;-71
2022/12/17 20:04:30;;;;;;;113.57;57.97;;;-5.70;99.90;;;;;;6218012;23;20396;-70
2022/12/17 20:06:57;;;;;;;110.43;57.67;;;-5.70;99.90;;;;;;6218436;23;20478;-70
2022/12/17 20:09:24;;;;;;;106.10;53.97;;;-5.80;99.90;;;;;;6219603;23;20447;-71
2022/12/17 20:11:51;;;;;;;112.00;54.40;;;-5.80;99.90;;;;;;6218212;23;20440;-70
2022/12/17 20:14:19;;;;;;;107.00;57.23;;;-5.80;99.90;;;;;;6218831;23;20780;-70
2022/12/17 20:16:47;;;;;;;123.20;57.70;;;-5.80;99.90;;;;;;6218630;23;20396;-70
2022/12/17 20:19:18;;;;;;;121.37;57.63;;;-5.80;99.90;;;;;;6218935;23;20443;-69
2022/12/17 20:21:44;;;;;;;123.23;55.83;;;-5.90;99.90;;;;;;6217587;23;20932;-70
2022/12/17 20:24:12;;;;;;;228.77;62.43;;;-5.90;99.90;;;;;;6217981;23;20412;-69
2022/12/17 20:26:40;;;;;;;259.23;64.07;;;-5.90;99.90;;;;;;6217328;23;20412;-71
2022/12/17 20:29:07;;;;;;;141.63;61.53;;;-5.90;99.90;;;;;;6217962;23;20450;-70
2022/12/17 20:31:34;;;;;;;134.40;61.00;;;-6.00;99.90;;;;;;6227223;23;20499;-70
2022/12/17 20:34:02;;;;;;;118.67;58.57;;;-5.90;99.90;;;;;;6217356;23;20923;-70
2022/12/17 20:36:31;;;;;;;128.73;61.40;;;-5.90;99.90;;;;;;6217277;23;20495;-68
2022/12/17 20:38:58;;;;;;;135.50;62.53;;;-6.00;99.90;;;;;;6217090;23;20927;-70
2022/12/17 20:41:26;;;;;;;136.90;60.40;;;-6.00;99.90;;;;;;6217287;23;20435;-68
2022/12/17 20:43:53;;;;;;;131.83;61.70;;;-6.10;99.90;;;;;;6217227;23;20412;-69
2022/12/17 20:46:21;;;;;;;133.20;62.17;;;-6.10;99.90;;;;;;6218028;23;20959;-69
2022/12/17 20:48:47;;;;;;;151.23;59.57;;;-6.10;99.90;;;;;;6217781;23;20415;-70
2022/12/17 20:51:17;;;;;;;130.40;59.07;;;-6.10;99.90;;;;;;6217997;23;20440;-70
2022/12/17 20:53:48;;;;;;;130.87;60.00;;;-6.10;99.90;;;;;;6217638;23;20412;-69
2022/12/17 20:56:17;;;;;;;128.13;60.47;;;-6.10;99.90;;;;;;6217042;23;20403;-69
2022/12/17 20:58:44;;;;;;;143.00;59.50;;;-6.20;99.90;;;;;;6217007;23;20419;-70
2022/12/17 21:01:12;;;;;;;121.50;60.07;;;-6.20;99.90;;;;;;6216683;23;20494;-70
2022/12/17 21:03:40;;;;;;;140.47;59.10;;;-6.20;99.90;;;;;;6217514;23;20422;-70
2022/12/17 21:06:09;;;;;;;123.20;59.07;;;-6.20;99.90;;;;;;6217556;23;20411;-69
2022/12/17 21:08:38;;;;;;;120.70;54.97;;;-6.30;99.90;;;;;;6217220;23;20415;-69
2022/12/17 21:11:06;;;;;;;120.90;57.97;;;-6.20;99.90;;;;;;6217272;23;20444;-69
2022/12/17 21:13:34;;;;;;;118.83;56.77;;;-6.30;99.90;;;;;;6216298;23;20905;-70
2022/12/17 21:16:02;;;;;;;125.83;59.27;;;-6.40;99.90;;;;;;6216275;23;20923;-70
2022/12/17 21:18:30;;;;;;;116.23;55.17;;;-6.30;99.90;;;;;;6216918;23;20416;-69
2022/12/17 21:20:58;;;;;;;124.87;60.47;;;-6.40;99.90;;;;;;6216581;23;20435;-69
2022/12/17 21:23:26;;;;;;;118.77;57.00;;;-6.40;99.90;;;;;;6216461;23;20396;-69
2022/12/17 21:26:00;;;;;;;117.23;56.80;;;-6.40;99.90;;;;;;6215789;23;20447;-70
2022/12/17 21:28:29;;;;;;;120.17;57.10;;;-6.40;99.90;;;;;;6216236;23;20411;-69
2022/12/17 21:30:56;;;;;;;126.50;58.10;;;-6.40;99.90;;;;;;6216099;23;20497;-68
2022/12/17 21:33:23;;;;;;;114.13;57.13;;;-6.40;99.90;;;;;;6216399;23;20481;-70
2022/12/17 21:35:49;;;;;;;128.27;58.00;;;-6.40;99.90;;;;;;6216182;23;20412;-69
2022/12/17 21:38:16;;;;;;;125.57;57.33;;;-6.40;99.90;;;;;;6216338;23;20412;-70
2022/12/17 21:40:43;;;;;;;134.13;59.20;;;-6.50;99.90;;;;;;6216611;23;20428;-69
2022/12/17 21:43:09;;;;;;;126.67;56.63;;;-6.50;99.90;;;;;;6226132;23;20404;-65
2022/12/17 21:45:40;;;;;;;126.40;57.30;;;-6.50;99.90;;;;;;6216059;23;20900;-65
2022/12/17 21:48:09;;;;;;;131.50;63.50;;;-6.50;99.90;;;;;;6216759;23;20432;-65
2022/12/17 21:50:40;;;;;;;132.60;59.17;;;-6.50;99.90;;;;;;6215704;23;20443;-65
2022/12/17 21:53:07;;;;;;;120.93;58.73;;;-6.50;99.90;;;;;;6216540;23;20750;-65
2022/12/17 21:55:34;;;;;;;566.53;86.93;;;-6.50;99.90;;;;;;6216419;23;20412;-63
2022/12/17 21:58:00;;;;;;;147.63;61.67;;;-6.50;99.90;;;;;;6216261;23;20416;-63
2022/12/17 22:00:27;;;;;;;145.10;62.63;;;-6.40;99.90;;;;;;6216134;23;20416;-63
2022/12/17 22:02:55;;;;;;;136.87;61.37;;;-6.40;99.90;;;;;;6216090;23;20403;-62
2022/12/17 22:05:22;;;;;;;133.77;62.00;;;-6.40;99.90;;;;;;6216289;23;20463;-63
2022/12/17 22:07:48;;;;;;;131.87;59.63;;;-6.40;99.90;;;;;;6216264;23;20446;-63
2022/12/17 22:10:15;;;;;;;137.53;60.80;;;-6.40;99.90;;;;;;6216109;23;20412;-62
2022/12/17 22:15:27;;;;;;;147.83;65.23;;;-6.50;99.90;;;;;;6216923;23;20411;-62
2022/12/17 22:17:57;;;;;;;154.20;61.90;;;-6.50;99.90;;;;;;6217313;23;20447;-62
2022/12/17 22:20:26;;;;;;;134.70;63.50;;;-6.40;99.90;;;;;;6227672;23;20752;-62
2022/12/17 22:22:53;;;;;;;130.00;60.43;;;-6.40;99.90;;;;;;6227342;23;20412;-62
2022/12/17 22:25:19;;;;;;;142.37;68.30;;;-6.40;99.90;;;;;;6216760;23;20440;-63
2022/12/17 22:27:47;;;;;;;141.07;64.10;;;-6.40;99.90;;;;;;6216699;23;20462;-63
2022/12/17 22:33:05;;;;;;;121.93;72.95;;;-6.40;99.90;;;;;;6224983;23;20480;-64
2022/12/17 22:35:34;;;;;;;112.53;68.63;;;-6.30;99.90;;;;;;6215802;23;20161;-64
2022/12/17 22:38:01;;;;;;;113.27;62.13;;;-6.20;99.90;;;;;;6216164;23;20411;-64
2022/12/17 22:40:28;;;;;;;108.13;56.27;;;-6.00;99.90;;;;;;6216233;23;20462;-64
2022/12/17 22:45:39;;;;;;;112.23;55.70;;;-6.00;99.90;;;;;;6222066;23;20426;-64
2022/12/17 22:48:10;;;;;;;111.83;57.17;;;-6.10;99.90;;;;;;6216066;23;20415;-64
2022/12/17 22:50:37;;;;;;;113.23;56.97;;;-6.00;99.90;;;;;;6215949;23;20412;-65
2022/12/17 22:53:04;;;;;;;109.70;55.37;;;-6.20;99.90;;;;;;6216460;23;20419;-65
2022/12/17 22:55:31;;;;;;;110.73;55.87;;;-6.20;99.90;;;;;;6216289;23;20419;-64
2022/12/17 22:57:57;;;;;;;117.50;57.30;;;-6.30;99.90;;;;;;6216430;23;20416;-64
